sensor_id;sensor_type;location;lat;lon;timestamp;temperature;humidity
1453;DHT22;720;47.738;7.998;2024-03-22T00:00:55;8.90;99.90
1453;DHT22;720;47.738;7.998;2024-03-22T00:03:21;8.90;99.90
1453;DHT22;720;47.738;7.998;2024-03-22T00:05:47;8.80;99.90
1453;DHT22;720;47.738;7.998;2024-03-22T00:08:13;8.90;99.90
1453;DHT22;720;47.738;7.998;2024-03-22T00:10:38;9.00;99.90
1453;DHT22;720;47.738;7.998;2024-03-22T00:13:04;8.90;99.90
1453;DHT22;720;47.738;7.998;2024-03-22T00:15:30;8.90;99.90
1453;DHT22;720;47.738;7.998;2024-03-22T00:17:55;8.90;99.90
1453;DHT22;720;47.738;7.998;2024-03-22T00:20:21;8.90;99.90
1453;DHT22;720;47.738;7.998;2024-03-22T00:22:46;8.90;99.90
1453;DHT22;720;47.738;7.998;2024-03-22T00:25:12;8.90;99.90
1453;DHT22;720;47.738;7.998;2024-03-22T00:27:38;8.80;99.90
1453;DHT22;720;47.738;7.998;2024-03-22T00:30:04;8.80;99.90
1453;DHT22;720;47.738;7.998;2024-03-22T00:32:30;8.70;99.90
1453;DHT22;720;47.738;7.998;2024-03-22T00:34:55;8.50;99.90
1453;DHT22;720;47.738;7.998;2024-03-22T00:37:21;8.40;99.90
1453;DHT22;720;47.738;7.998;2024-03-22T00:39:47;8.50;99.90
1453;DHT22;720;47.738;7.998;2024-03-22T00:42:12;8.40;99.90
1453;DHT22;720;47.738;7.998;2024-03-22T00:44:38;8.40;99.90
1453;DHT22;720;47.738;7.998;2024-03-22T00:47:04;8.40;99.90
1453;DHT22;720;47.738;7.998;2024-03-22T00:49:31;8.40;99.90
1453;DHT22;720;47.738;7.998;2024-03-22T00:51:56;8.40;99.90
1453;DHT22;720;47.738;7.998;2024-03-22T00:54:23;8.40;99.90
1453;DHT22;720;47.738;7.998;2024-03-22T00:56:48;8.50;99.90
1453;DHT22;720;47.738;7.998;2024-03-22T00:59:14;8.50;99.90
1453;DHT22;720;47.738;7.998;2024-03-22T01:01:40;8.50;99.90
1453;DHT22;720;47.738;7.998;2024-03-22T01:04:05;8.40;99.90
1453;DHT22;720;47.738;7.998;2024-03-22T01:06:31;8.30;99.90
1453;DHT22;720;47.738;7.998;2024-03-22T01:08:57;8.30;99.90
1453;DHT22;720;47.738;7.998;2024-03-22T01:11:22;8.40;99.90
1453;DHT22;720;47.738;7.998;2024-03-22T01:13:48;8.30;99.90
1453;DHT22;720;47.738;7.998;2024-03-22T01:16:13;8.30;99.90
1453;DHT22;720;47.738;7.998;2024-03-22T01:18:39;8.30;99.90
1453;DHT22;720;47.738;7.998;2024-03-22T01:21:04;8.30;99.90
1453;DHT22;720;47.738;7.998;2024-03-22T01:23:31;8.40;99.90
1453;DHT22;720;47.738;7.998;2024-03-22T01:25:56;8.40;99.90
1453;DHT22;720;47.738;7.998;2024-03-22T01:28:22;8.50;99.90
1453;DHT22;720;47.738;7.998;2024-03-22T01:30:48;8.40;99.90
1453;DHT22;720;47.738;7.998;2024-03-22T01:33:14;8.30;99.90
1453;DHT22;720;47.738;7.998;2024-03-22T01:35:39;8.30;99.90
1453;DHT22;720;47.738;7.998;2024-03-22T01:38:05;8.30;99.90
1453;DHT22;720;47.738;7.998;2024-03-22T01:40:31;8.20;99.90
1453;DHT22;720;47.738;7.998;2024-03-22T01:42:57;8.20;99.90
1453;DHT22;720;47.738;7.998;2024-03-22T01:45:23;8.20;99.90
1453;DHT22;720;47.738;7.998;2024-03-22T01:47:51;8.10;99.90
1453;DHT22;720;47.738;7.998;2024-03-22T01:50:17;8.10;99.90
1453;DHT22;720;47.738;7.998;2024-03-22T01:52:43;8.20;99.90
1453;DHT22;720;47.738;7.998;2024-03-22T01:55:09;8.10;99.90
1453;DHT22;720;47.738;7.998;2024-03-22T01:57:35;8.00;99.90
1453;DHT22;720;47.738;7.998;2024-03-22T02:00:01;8.00;99.90
1453;DHT22;720;47.738;7.998;2024-03-22T02:02:27;8.10;99.90
1453;DHT22;720;47.738;7.998;2024-03-22T02:04:52;8.10;99.90
1453;DHT22;720;47.738;7.998;2024-03-22T02:07:18;8.20;99.90
1453;DHT22;720;47.738;7.998;2024-03-22T02:09:44;8.10;99.90
1453;DHT22;720;47.738;7.998;2024-03-22T02:12:10;8.20;99.90
1453;DHT22;720;47.738;7.998;2024-03-22T02:14:36;8.10;99.90
1453;DHT22;720;47.738;7.998;2024-03-22T02:17:02;7.90;99.90
1453;DHT22;720;47.738;7.998;2024-03-22T02:19:27;8.00;99.90
1453;DHT22;720;47.738;7.998;2024-03-22T02:21:53;7.90;99.90
1453;DHT22;720;47.738;7.998;2024-03-22T02:24:18;7.80;99.90
1453;DHT22;720;47.738;7.998;2024-03-22T02:26:44;7.90;99.90
1453;DHT22;720;47.738;7.998;2024-03-22T02:29:10;8.00;99.90
1453;DHT22;720;47.738;7.998;2024-03-22T02:31:35;8.00;99.90
1453;DHT22;720;47.738;7.998;2024-03-22T02:34:01;8.00;99.90
1453;DHT22;720;47.738;7.998;2024-03-22T02:36:28;8.00;99.90
1453;DHT22;720;47.738;7.998;2024-03-22T02:38:54;7.90;99.90
1453;DHT22;720;47.738;7.998;2024-03-22T02:41:20;7.70;99.90
1453;DHT22;720;47.738;7.998;2024-03-22T02:43:48;7.60;99.90
1453;DHT22;720;47.738;7.998;2024-03-22T02:46:14;7.70;99.90
1453;DHT22;720;47.738;7.998;2024-03-22T02:48:39;7.70;99.90
1453;DHT22;720;47.738;7.998;2024-03-22T02:51:05;7.70;99.90
1453;DHT22;720;47.738;7.998;2024-03-22T02:53:30;7.60;99.90
1453;DHT22;720;47.738;7.998;2024-03-22T02:56:00;7.70;99.90
1453;DHT22;720;47.738;7.998;2024-03-22T02:58:25;7.70;99.90
1453;DHT22;720;47.738;7.998;2024-03-22T03:00:51;7.70;99.90
1453;DHT22;720;47.738;7.998;2024-03-22T03:03:17;7.70;99.90
1453;DHT22;720;47.738;7.998;2024-03-22T03:05:42;7.70;99.90
1453;DHT22;720;47.738;7.998;2024-03-22T03:08:09;7.60;99.90
1453;DHT22;720;47.738;7.998;2024-03-22T03:10:35;7.50;99.90
1453;DHT22;720;47.738;7.998;2024-03-22T03:13:00;7.60;99.90
1453;DHT22;720;47.738;7.998;2024-03-22T03:15:26;7.70;99.90
1453;DHT22;720;47.738;7.998;2024-03-22T03:17:52;7.80;99.90
1453;DHT22;720;47.738;7.998;2024-03-22T03:20:18;7.80;99.90
1453;DHT22;720;47.738;7.998;2024-03-22T03:22:43;7.80;99.90
1453;DHT22;720;47.738;7.998;2024-03-22T03:25:09;7.80;99.90
1453;DHT22;720;47.738;7.998;2024-03-22T03:27:35;7.80;99.90
1453;DHT22;720;47.738;7.998;2024-03-22T03:30:01;7.90;99.90
1453;DHT22;720;47.738;7.998;2024-03-22T03:32:27;8.00;99.90
1453;DHT22;720;47.738;7.998;2024-03-22T03:34:53;8.10;99.90
1453;DHT22;720;47.738;7.998;2024-03-22T03:37:18;8.20;99.90
1453;DHT22;720;47.738;7.998;2024-03-22T03:39:44;8.20;99.90
1453;DHT22;720;47.738;7.998;2024-03-22T03:42:10;8.30;99.90
1453;DHT22;720;47.738;7.998;2024-03-22T03:44:36;8.30;99.90
1453;DHT22;720;47.738;7.998;2024-03-22T03:47:02;8.30;99.90
1453;DHT22;720;47.738;7.998;2024-03-22T03:49:27;8.30;99.90
1453;DHT22;720;47.738;7.998;2024-03-22T03:51:53;8.30;99.90
1453;DHT22;720;47.738;7.998;2024-03-22T03:54:19;8.30;99.90
1453;DHT22;720;47.738;7.998;2024-03-22T03:56:44;8.30;99.90
1453;DHT22;720;47.738;7.998;2024-03-22T03:59:10;8.30;99.90
1453;DHT22;720;47.738;7.998;2024-03-22T04:01:36;8.30;99.90
1453;DHT22;720;47.738;7.998;2024-03-22T04:04:02;8.20;99.90
1453;DHT22;720;47.738;7.998;2024-03-22T04:06:28;8.20;99.90
1453;DHT22;720;47.738;7.998;2024-03-22T04:08:54;8.30;99.90
1453;DHT22;720;47.738;7.998;2024-03-22T04:11:20;8.40;99.90
1453;DHT22;720;47.738;7.998;2024-03-22T04:13:45;8.30;99.90
1453;DHT22;720;47.738;7.998;2024-03-22T04:16:11;8.40;99.90
1453;DHT22;720;47.738;7.998;2024-03-22T04:18:36;8.50;99.90
1453;DHT22;720;47.738;7.998;2024-03-22T04:21:02;8.40;99.90
1453;DHT22;720;47.738;7.998;2024-03-22T04:23:28;8.40;99.90
1453;DHT22;720;47.738;7.998;2024-03-22T04:26:00;8.30;99.90
1453;DHT22;720;47.738;7.998;2024-03-22T04:28:29;8.30;99.90
1453;DHT22;720;47.738;7.998;2024-03-22T04:31:04;8.30;99.90
1453;DHT22;720;47.738;7.998;2024-03-22T04:33:31;8.30;99.90
1453;DHT22;720;47.738;7.998;2024-03-22T04:35:57;8.40;99.90
1453;DHT22;720;47.738;7.998;2024-03-22T04:38:24;8.50;99.90
1453;DHT22;720;47.738;7.998;2024-03-22T04:40:50;8.50;99.90
1453;DHT22;720;47.738;7.998;2024-03-22T04:43:16;8.50;99.90
1453;DHT22;720;47.738;7.998;2024-03-22T04:45:43;8.50;99.90
1453;DHT22;720;47.738;7.998;2024-03-22T04:48:09;8.60;99.90
1453;DHT22;720;47.738;7.998;2024-03-22T04:50:35;8.60;99.90
1453;DHT22;720;47.738;7.998;2024-03-22T04:53:01;8.60;99.90
1453;DHT22;720;47.738;7.998;2024-03-22T04:55:27;8.60;99.90
1453;DHT22;720;47.738;7.998;2024-03-22T04:57:53;8.60;99.90
1453;DHT22;720;47.738;7.998;2024-03-22T05:00:19;8.60;99.90
1453;DHT22;720;47.738;7.998;2024-03-22T05:02:44;8.60;99.90
1453;DHT22;720;47.738;7.998;2024-03-22T05:05:11;8.60;99.90
1453;DHT22;720;47.738;7.998;2024-03-22T05:07:38;8.70;99.90
1453;DHT22;720;47.738;7.998;2024-03-22T05:10:04;8.80;99.90
1453;DHT22;720;47.738;7.998;2024-03-22T05:12:30;8.80;99.90
1453;DHT22;720;47.738;7.998;2024-03-22T05:14:56;8.80;99.90
1453;DHT22;720;47.738;7.998;2024-03-22T05:17:22;8.90;99.90
1453;DHT22;720;47.738;7.998;2024-03-22T05:19:47;8.80;99.90
1453;DHT22;720;47.738;7.998;2024-03-22T05:22:13;8.90;99.90
1453;DHT22;720;47.738;7.998;2024-03-22T05:24:39;8.90;99.90
1453;DHT22;720;47.738;7.998;2024-03-22T05:27:04;9.00;99.90
1453;DHT22;720;47.738;7.998;2024-03-22T05:29:30;9.00;99.90
1453;DHT22;720;47.738;7.998;2024-03-22T05:31:55;8.90;99.90
1453;DHT22;720;47.738;7.998;2024-03-22T05:34:22;8.80;99.90
1453;DHT22;720;47.738;7.998;2024-03-22T05:36:48;8.90;99.90
1453;DHT22;720;47.738;7.998;2024-03-22T05:39:14;8.90;99.90
1453;DHT22;720;47.738;7.998;2024-03-22T05:41:40;8.90;99.90
1453;DHT22;720;47.738;7.998;2024-03-22T05:44:06;8.90;99.90
1453;DHT22;720;47.738;7.998;2024-03-22T05:46:31;8.90;99.90
1453;DHT22;720;47.738;7.998;2024-03-22T05:48:58;8.90;99.90
1453;DHT22;720;47.738;7.998;2024-03-22T05:51:24;8.90;99.90
1453;DHT22;720;47.738;7.998;2024-03-22T05:53:50;9.00;99.90
1453;DHT22;720;47.738;7.998;2024-03-22T05:56:16;9.00;99.90
1453;DHT22;720;47.738;7.998;2024-03-22T05:58:42;9.00;99.90
1453;DHT22;720;47.738;7.998;2024-03-22T06:01:07;9.10;99.90
1453;DHT22;720;47.738;7.998;2024-03-22T06:03:33;9.10;99.90
1453;DHT22;720;47.738;7.998;2024-03-22T06:06:00;9.20;99.90
1453;DHT22;720;47.738;7.998;2024-03-22T06:08:26;9.30;99.90
1453;DHT22;720;47.738;7.998;2024-03-22T06:10:55;9.40;99.90
1453;DHT22;720;47.738;7.998;2024-03-22T06:13:24;9.40;99.90
1453;DHT22;720;47.738;7.998;2024-03-22T06:15:50;9.50;99.90
1453;DHT22;720;47.738;7.998;2024-03-22T06:18:15;9.70;99.90
1453;DHT22;720;47.738;7.998;2024-03-22T06:20:41;9.80;99.90
1453;DHT22;720;47.738;7.998;2024-03-22T06:23:10;9.90;99.90
1453;DHT22;720;47.738;7.998;2024-03-22T06:25:36;10.00;99.90
1453;DHT22;720;47.738;7.998;2024-03-22T06:28:01;10.00;99.90
1453;DHT22;720;47.738;7.998;2024-03-22T06:30:27;10.00;99.90
1453;DHT22;720;47.738;7.998;2024-03-22T06:32:53;10.20;99.90
1453;DHT22;720;47.738;7.998;2024-03-22T06:35:20;10.30;99.90
1453;DHT22;720;47.738;7.998;2024-03-22T06:37:46;10.40;99.90
1453;DHT22;720;47.738;7.998;2024-03-22T06:40:12;10.60;99.90
1453;DHT22;720;47.738;7.998;2024-03-22T06:42:37;10.60;99.90
1453;DHT22;720;47.738;7.998;2024-03-22T06:45:03;10.70;99.90
1453;DHT22;720;47.738;7.998;2024-03-22T06:47:29;10.80;99.90
1453;DHT22;720;47.738;7.998;2024-03-22T06:49:54;11.00;99.90
1453;DHT22;720;47.738;7.998;2024-03-22T06:52:21;11.40;99.90
1453;DHT22;720;47.738;7.998;2024-03-22T06:54:47;11.70;99.90
1453;DHT22;720;47.738;7.998;2024-03-22T06:57:13;12.10;99.60
1453;DHT22;720;47.738;7.998;2024-03-22T06:59:38;12.30;98.90
1453;DHT22;720;47.738;7.998;2024-03-22T07:02:04;12.50;97.90
1453;DHT22;720;47.738;7.998;2024-03-22T07:04:30;12.80;97.70
1453;DHT22;720;47.738;7.998;2024-03-22T07:06:55;13.00;97.40
1453;DHT22;720;47.738;7.998;2024-03-22T07:09:21;13.20;96.80
1453;DHT22;720;47.738;7.998;2024-03-22T07:11:47;13.10;95.70
1453;DHT22;720;47.738;7.998;2024-03-22T07:14:12;13.10;95.80
1453;DHT22;720;47.738;7.998;2024-03-22T07:16:38;13.30;96.00
1453;DHT22;720;47.738;7.998;2024-03-22T07:19:04;13.60;96.00
1453;DHT22;720;47.738;7.998;2024-03-22T07:21:30;14.00;95.50
1453;DHT22;720;47.738;7.998;2024-03-22T07:23:56;14.40;95.10
1453;DHT22;720;47.738;7.998;2024-03-22T07:26:22;14.60;93.90
1453;DHT22;720;47.738;7.998;2024-03-22T07:28:47;14.60;93.70
1453;DHT22;720;47.738;7.998;2024-03-22T07:31:13;14.70;93.70
1453;DHT22;720;47.738;7.998;2024-03-22T07:33:39;14.70;93.30
1453;DHT22;720;47.738;7.998;2024-03-22T07:36:06;14.80;93.10
1453;DHT22;720;47.738;7.998;2024-03-22T07:38:32;15.00;92.60
1453;DHT22;720;47.738;7.998;2024-03-22T07:40:57;15.60;92.70
1453;DHT22;720;47.738;7.998;2024-03-22T07:43:23;16.60;92.00
1453;DHT22;720;47.738;7.998;2024-03-22T07:45:49;17.50;88.90
1453;DHT22;720;47.738;7.998;2024-03-22T07:48:15;18.90;86.20
1453;DHT22;720;47.738;7.998;2024-03-22T07:50:41;21.10;77.40
1453;DHT22;720;47.738;7.998;2024-03-22T07:53:07;23.30;67.10
1453;DHT22;720;47.738;7.998;2024-03-22T07:55:32;25.20;58.90
1453;DHT22;720;47.738;7.998;2024-03-22T07:57:58;25.70;54.90
1453;DHT22;720;47.738;7.998;2024-03-22T08:00:24;25.60;52.80
1453;DHT22;720;47.738;7.998;2024-03-22T08:02:53;25.30;53.80
1453;DHT22;720;47.738;7.998;2024-03-22T08:05:18;25.30;52.70
1453;DHT22;720;47.738;7.998;2024-03-22T08:07:45;25.10;52.20
1453;DHT22;720;47.738;7.998;2024-03-22T08:10:10;25.60;51.90
1453;DHT22;720;47.738;7.998;2024-03-22T08:12:36;26.70;50.40
1453;DHT22;720;47.738;7.998;2024-03-22T08:15:02;27.80;46.60
1453;DHT22;720;47.738;7.998;2024-03-22T08:17:28;28.80;43.70
1453;DHT22;720;47.738;7.998;2024-03-22T08:19:53;29.40;43.00
1453;DHT22;720;47.738;7.998;2024-03-22T08:22:19;30.20;42.40
1453;DHT22;720;47.738;7.998;2024-03-22T08:24:45;30.90;40.10
1453;DHT22;720;47.738;7.998;2024-03-22T08:27:10;30.60;38.90
1453;DHT22;720;47.738;7.998;2024-03-22T08:29:37;30.60;39.80
1453;DHT22;720;47.738;7.998;2024-03-22T08:32:05;31.00;38.60
1453;DHT22;720;47.738;7.998;2024-03-22T08:34:31;31.00;37.40
1453;DHT22;720;47.738;7.998;2024-03-22T08:37:00;31.10;37.30
1453;DHT22;720;47.738;7.998;2024-03-22T08:39:25;31.00;36.80
1453;DHT22;720;47.738;7.998;2024-03-22T08:41:51;30.80;36.70
1453;DHT22;720;47.738;7.998;2024-03-22T08:44:17;30.60;35.30
1453;DHT22;720;47.738;7.998;2024-03-22T08:46:43;30.50;35.50
1453;DHT22;720;47.738;7.998;2024-03-22T08:49:09;30.00;35.00
1453;DHT22;720;47.738;7.998;2024-03-22T08:51:34;29.10;35.30
1453;DHT22;720;47.738;7.998;2024-03-22T08:54:00;29.10;35.10
1453;DHT22;720;47.738;7.998;2024-03-22T08:56:26;28.90;35.00
1453;DHT22;720;47.738;7.998;2024-03-22T08:58:52;27.90;34.90
1453;DHT22;720;47.738;7.998;2024-03-22T09:01:18;28.20;34.60
1453;DHT22;720;47.738;7.998;2024-03-22T09:03:43;28.80;33.80
1453;DHT22;720;47.738;7.998;2024-03-22T09:06:12;28.70;32.40
1453;DHT22;720;47.738;7.998;2024-03-22T09:08:37;29.00;33.30
1453;DHT22;720;47.738;7.998;2024-03-22T09:11:03;29.90;33.70
1453;DHT22;720;47.738;7.998;2024-03-22T09:13:29;30.00;32.70
1453;DHT22;720;47.738;7.998;2024-03-22T09:16:01;29.50;32.20
1453;DHT22;720;47.738;7.998;2024-03-22T09:18:28;30.40;31.10
1453;DHT22;720;47.738;7.998;2024-03-22T09:20:53;30.10;29.20
1453;DHT22;720;47.738;7.998;2024-03-22T09:23:19;28.90;29.60
1453;DHT22;720;47.738;7.998;2024-03-22T09:25:48;28.40;30.90
1453;DHT22;720;47.738;7.998;2024-03-22T09:28:14;28.60;31.90
1453;DHT22;720;47.738;7.998;2024-03-22T09:30:40;28.90;31.00
1453;DHT22;720;47.738;7.998;2024-03-22T09:33:07;29.30;31.30
1453;DHT22;720;47.738;7.998;2024-03-22T09:35:35;30.00;30.70
1453;DHT22;720;47.738;7.998;2024-03-22T09:38:01;29.40;28.80
1453;DHT22;720;47.738;7.998;2024-03-22T09:40:28;29.00;29.30
1453;DHT22;720;47.738;7.998;2024-03-22T09:42:54;29.20;29.30
1453;DHT22;720;47.738;7.998;2024-03-22T09:45:25;29.70;29.20
1453;DHT22;720;47.738;7.998;2024-03-22T09:47:52;29.40;29.30
1453;DHT22;720;47.738;7.998;2024-03-22T09:50:21;28.80;31.20
1453;DHT22;720;47.738;7.998;2024-03-22T09:52:47;29.30;31.20
1453;DHT22;720;47.738;7.998;2024-03-22T09:55:14;29.40;31.00
1453;DHT22;720;47.738;7.998;2024-03-22T09:57:40;28.30;30.60
1453;DHT22;720;47.738;7.998;2024-03-22T10:00:08;27.90;31.20
1453;DHT22;720;47.738;7.998;2024-03-22T10:02:34;27.80;31.20
1453;DHT22;720;47.738;7.998;2024-03-22T10:05:00;27.50;31.70
1453;DHT22;720;47.738;7.998;2024-03-22T10:07:28;27.00;33.30
1453;DHT22;720;47.738;7.998;2024-03-22T10:09:53;26.20;33.50
1453;DHT22;720;47.738;7.998;2024-03-22T10:12:19;26.40;33.90
1453;DHT22;720;47.738;7.998;2024-03-22T10:14:46;27.00;34.20
1453;DHT22;720;47.738;7.998;2024-03-22T10:17:11;27.20;33.50
1453;DHT22;720;47.738;7.998;2024-03-22T10:19:37;27.00;35.20
1453;DHT22;720;47.738;7.998;2024-03-22T10:22:03;26.10;35.00
1453;DHT22;720;47.738;7.998;2024-03-22T10:24:30;25.50;36.30
1453;DHT22;720;47.738;7.998;2024-03-22T10:26:56;25.70;35.80
1453;DHT22;720;47.738;7.998;2024-03-22T10:29:22;25.90;36.70
1453;DHT22;720;47.738;7.998;2024-03-22T10:31:50;26.00;37.30
1453;DHT22;720;47.738;7.998;2024-03-22T10:34:17;25.60;36.10
1453;DHT22;720;47.738;7.998;2024-03-22T10:36:44;25.30;37.60
1453;DHT22;720;47.738;7.998;2024-03-22T10:39:11;24.60;37.70
1453;DHT22;720;47.738;7.998;2024-03-22T10:41:38;24.20;39.80
1453;DHT22;720;47.738;7.998;2024-03-22T10:44:04;23.80;40.80
1453;DHT22;720;47.738;7.998;2024-03-22T10:46:30;23.90;38.60
1453;DHT22;720;47.738;7.998;2024-03-22T10:48:57;23.90;37.60
1453;DHT22;720;47.738;7.998;2024-03-22T10:51:24;23.70;38.90
1453;DHT22;720;47.738;7.998;2024-03-22T10:53:53;23.30;39.60
1453;DHT22;720;47.738;7.998;2024-03-22T10:56:21;23.20;39.40
1453;DHT22;720;47.738;7.998;2024-03-22T10:58:47;23.20;39.10
1453;DHT22;720;47.738;7.998;2024-03-22T11:01:25;22.70;38.90
1453;DHT22;720;47.738;7.998;2024-03-22T11:03:51;22.20;40.70
1453;DHT22;720;47.738;7.998;2024-03-22T11:06:20;22.00;41.00
1453;DHT22;720;47.738;7.998;2024-03-22T11:08:51;21.70;42.30
1453;DHT22;720;47.738;7.998;2024-03-22T11:11:19;21.60;41.90
1453;DHT22;720;47.738;7.998;2024-03-22T11:13:48;21.70;41.10
1453;DHT22;720;47.738;7.998;2024-03-22T11:16:15;21.80;41.50
1453;DHT22;720;47.738;7.998;2024-03-22T11:18:40;21.30;42.80
1453;DHT22;720;47.738;7.998;2024-03-22T11:21:07;20.70;42.90
1453;DHT22;720;47.738;7.998;2024-03-22T11:23:37;20.70;42.90
1453;DHT22;720;47.738;7.998;2024-03-22T11:26:03;20.80;42.50
1453;DHT22;720;47.738;7.998;2024-03-22T11:28:30;20.80;42.40
1453;DHT22;720;47.738;7.998;2024-03-22T11:30:56;20.70;42.10
1453;DHT22;720;47.738;7.998;2024-03-22T11:33:22;20.50;43.10
1453;DHT22;720;47.738;7.998;2024-03-22T11:35:47;20.00;43.10
1453;DHT22;720;47.738;7.998;2024-03-22T11:38:15;19.60;42.30
1453;DHT22;720;47.738;7.998;2024-03-22T11:40:41;19.70;43.90
1453;DHT22;720;47.738;7.998;2024-03-22T11:43:07;19.50;42.20
1453;DHT22;720;47.738;7.998;2024-03-22T11:45:33;19.40;42.60
1453;DHT22;720;47.738;7.998;2024-03-22T11:48:02;19.60;42.70
1453;DHT22;720;47.738;7.998;2024-03-22T11:50:28;19.70;49.20
1453;DHT22;720;47.738;7.998;2024-03-22T11:52:54;19.80;41.50
1453;DHT22;720;47.738;7.998;2024-03-22T11:55:20;19.80;41.70
1453;DHT22;720;47.738;7.998;2024-03-22T11:57:48;19.70;39.80
1453;DHT22;720;47.738;7.998;2024-03-22T12:00:16;19.60;39.70
1453;DHT22;720;47.738;7.998;2024-03-22T12:02:42;19.40;40.10
1453;DHT22;720;47.738;7.998;2024-03-22T12:05:09;19.30;39.70
1453;DHT22;720;47.738;7.998;2024-03-22T12:07:35;19.00;38.80
1453;DHT22;720;47.738;7.998;2024-03-22T12:10:00;18.80;39.60
1453;DHT22;720;47.738;7.998;2024-03-22T12:12:26;18.60;38.90
1453;DHT22;720;47.738;7.998;2024-03-22T12:14:52;18.70;39.80
1453;DHT22;720;47.738;7.998;2024-03-22T12:17:18;18.80;39.90
1453;DHT22;720;47.738;7.998;2024-03-22T12:19:44;18.80;39.80
1453;DHT22;720;47.738;7.998;2024-03-22T12:22:10;18.80;39.30
1453;DHT22;720;47.738;7.998;2024-03-22T12:24:36;19.00;39.00
1453;DHT22;720;47.738;7.998;2024-03-22T12:27:02;18.90;39.50
1453;DHT22;720;47.738;7.998;2024-03-22T12:29:28;18.70;39.30
1453;DHT22;720;47.738;7.998;2024-03-22T12:31:54;18.20;38.20
1453;DHT22;720;47.738;7.998;2024-03-22T12:34:20;18.40;39.40
1453;DHT22;720;47.738;7.998;2024-03-22T12:36:45;18.60;39.30
1453;DHT22;720;47.738;7.998;2024-03-22T12:39:11;18.70;38.10
1453;DHT22;720;47.738;7.998;2024-03-22T12:41:37;18.70;38.40
1453;DHT22;720;47.738;7.998;2024-03-22T12:44:03;18.60;37.90
1453;DHT22;720;47.738;7.998;2024-03-22T12:46:29;18.50;37.80
1453;DHT22;720;47.738;7.998;2024-03-22T12:48:55;18.40;37.80
1453;DHT22;720;47.738;7.998;2024-03-22T12:51:20;18.30;38.90
1453;DHT22;720;47.738;7.998;2024-03-22T12:53:46;18.20;38.00
1453;DHT22;720;47.738;7.998;2024-03-22T12:56:12;18.30;38.30
1453;DHT22;720;47.738;7.998;2024-03-22T12:58:37;18.20;38.20
1453;DHT22;720;47.738;7.998;2024-03-22T13:01:05;18.30;37.70
1453;DHT22;720;47.738;7.998;2024-03-22T13:03:34;18.10;37.30
1453;DHT22;720;47.738;7.998;2024-03-22T13:05:59;18.20;37.60
1453;DHT22;720;47.738;7.998;2024-03-22T13:08:25;18.20;37.70
1453;DHT22;720;47.738;7.998;2024-03-22T13:10:51;18.00;38.50
1453;DHT22;720;47.738;7.998;2024-03-22T13:13:18;17.90;40.50
1453;DHT22;720;47.738;7.998;2024-03-22T13:15:43;17.80;38.60
1453;DHT22;720;47.738;7.998;2024-03-22T13:18:09;17.90;38.90
1453;DHT22;720;47.738;7.998;2024-03-22T13:20:35;18.00;42.20
1453;DHT22;720;47.738;7.998;2024-03-22T13:23:02;18.10;38.50
1453;DHT22;720;47.738;7.998;2024-03-22T13:25:28;18.20;38.10
1453;DHT22;720;47.738;7.998;2024-03-22T13:27:53;18.30;39.10
1453;DHT22;720;47.738;7.998;2024-03-22T13:30:19;18.30;37.10
1453;DHT22;720;47.738;7.998;2024-03-22T13:32:45;18.40;38.60
1453;DHT22;720;47.738;7.998;2024-03-22T13:35:11;18.40;36.50
1453;DHT22;720;47.738;7.998;2024-03-22T13:37:37;18.20;35.30
1453;DHT22;720;47.738;7.998;2024-03-22T13:40:02;18.00;34.50
1453;DHT22;720;47.738;7.998;2024-03-22T13:42:28;17.70;36.00
1453;DHT22;720;47.738;7.998;2024-03-22T13:44:55;17.70;37.30
1453;DHT22;720;47.738;7.998;2024-03-22T13:47:22;17.70;35.80
1453;DHT22;720;47.738;7.998;2024-03-22T13:49:47;17.70;34.30
1453;DHT22;720;47.738;7.998;2024-03-22T13:52:13;17.70;33.30
1453;DHT22;720;47.738;7.998;2024-03-22T13:54:40;17.80;37.50
1453;DHT22;720;47.738;7.998;2024-03-22T13:57:05;17.90;36.30
1453;DHT22;720;47.738;7.998;2024-03-22T13:59:31;17.80;35.70
1453;DHT22;720;47.738;7.998;2024-03-22T14:01:57;17.80;36.00
1453;DHT22;720;47.738;7.998;2024-03-22T14:04:23;17.80;35.30
1453;DHT22;720;47.738;7.998;2024-03-22T14:06:49;17.80;35.80
1453;DHT22;720;47.738;7.998;2024-03-22T14:09:15;18.00;36.70
1453;DHT22;720;47.738;7.998;2024-03-22T14:11:41;18.00;37.50
1453;DHT22;720;47.738;7.998;2024-03-22T14:14:09;18.00;38.70
1453;DHT22;720;47.738;7.998;2024-03-22T14:16:40;18.00;38.50
1453;DHT22;720;47.738;7.998;2024-03-22T14:19:09;17.80;37.80
1453;DHT22;720;47.738;7.998;2024-03-22T14:21:35;17.70;37.80
1453;DHT22;720;47.738;7.998;2024-03-22T14:24:00;17.70;38.10
1453;DHT22;720;47.738;7.998;2024-03-22T14:26:26;17.80;38.20
1453;DHT22;720;47.738;7.998;2024-03-22T14:28:52;17.60;41.20
1453;DHT22;720;47.738;7.998;2024-03-22T14:31:18;17.50;39.70
1453;DHT22;720;47.738;7.998;2024-03-22T14:33:44;17.60;38.80
1453;DHT22;720;47.738;7.998;2024-03-22T14:36:10;17.80;38.90
1453;DHT22;720;47.738;7.998;2024-03-22T14:38:37;17.90;37.90
1453;DHT22;720;47.738;7.998;2024-03-22T14:41:03;18.00;39.20
1453;DHT22;720;47.738;7.998;2024-03-22T14:43:29;18.00;36.50
1453;DHT22;720;47.738;7.998;2024-03-22T14:45:57;18.10;34.80
1453;DHT22;720;47.738;7.998;2024-03-22T14:48:23;18.00;34.00
1453;DHT22;720;47.738;7.998;2024-03-22T14:50:49;18.10;34.80
1453;DHT22;720;47.738;7.998;2024-03-22T14:53:19;18.30;34.70
1453;DHT22;720;47.738;7.998;2024-03-22T14:55:53;18.30;33.40
1453;DHT22;720;47.738;7.998;2024-03-22T14:58:20;18.40;33.60
1453;DHT22;720;47.738;7.998;2024-03-22T15:00:56;18.50;38.90
1453;DHT22;720;47.738;7.998;2024-03-22T15:03:23;18.50;41.80
1453;DHT22;720;47.738;7.998;2024-03-22T15:05:53;18.30;36.60
1453;DHT22;720;47.738;7.998;2024-03-22T15:08:19;18.20;41.60
1453;DHT22;720;47.738;7.998;2024-03-22T15:10:45;18.00;35.20
1453;DHT22;720;47.738;7.998;2024-03-22T15:13:12;17.90;39.20
1453;DHT22;720;47.738;7.998;2024-03-22T15:15:38;17.70;41.50
1453;DHT22;720;47.738;7.998;2024-03-22T15:18:04;17.50;38.30
1453;DHT22;720;47.738;7.998;2024-03-22T15:20:33;17.50;43.70
1453;DHT22;720;47.738;7.998;2024-03-22T15:23:00;17.40;39.20
1453;DHT22;720;47.738;7.998;2024-03-22T15:25:26;17.40;37.40
1453;DHT22;720;47.738;7.998;2024-03-22T15:27:52;17.60;41.80
1453;DHT22;720;47.738;7.998;2024-03-22T15:30:18;17.70;37.90
1453;DHT22;720;47.738;7.998;2024-03-22T15:32:44;17.80;38.00
1453;DHT22;720;47.738;7.998;2024-03-22T15:35:10;17.90;43.20
1453;DHT22;720;47.738;7.998;2024-03-22T15:37:37;17.90;45.20
1453;DHT22;720;47.738;7.998;2024-03-22T15:40:04;18.00;38.40
1453;DHT22;720;47.738;7.998;2024-03-22T15:42:30;18.20;43.80
1453;DHT22;720;47.738;7.998;2024-03-22T15:44:55;18.10;49.30
1453;DHT22;720;47.738;7.998;2024-03-22T15:47:22;18.10;42.80
1453;DHT22;720;47.738;7.998;2024-03-22T15:49:48;18.10;43.00
1453;DHT22;720;47.738;7.998;2024-03-22T15:52:14;18.20;43.70
1453;DHT22;720;47.738;7.998;2024-03-22T15:54:39;18.20;45.60
1453;DHT22;720;47.738;7.998;2024-03-22T15:57:05;18.00;41.70
1453;DHT22;720;47.738;7.998;2024-03-22T15:59:30;18.00;43.80
1453;DHT22;720;47.738;7.998;2024-03-22T16:01:56;18.00;44.10
1453;DHT22;720;47.738;7.998;2024-03-22T16:04:22;17.80;42.80
1453;DHT22;720;47.738;7.998;2024-03-22T16:06:47;17.70;44.50
1453;DHT22;720;47.738;7.998;2024-03-22T16:09:14;17.60;43.40
1453;DHT22;720;47.738;7.998;2024-03-22T16:11:40;17.40;43.60
1453;DHT22;720;47.738;7.998;2024-03-22T16:14:05;17.20;46.80
1453;DHT22;720;47.738;7.998;2024-03-22T16:16:31;17.00;48.70